Time;durP1;ratioP1;P1;durP2;ratioP2;P2;SDS_P1;SDS_P2;PMS_P1;PMS_P2;Temp;Humidity;BMP_temperature;BMP_pressure;BME280_temperature;BME280_humidity;BME280_pressure;Samples;Min_cycle;Max_cycle;Signal;HPM_P1;HPM_P2
2023/06/15 00:02:04;;;;;;;10.60;2.50;;;;;;;16.10;55.06;101222.47;6024454;28;20026;-65
2023/06/15 00:04:59;;;;;;;5.60;2.72;;;;;;;15.90;55.53;101213.13;6052387;28;20041;-67
2023/06/15 00:07:54;;;;;;;7.37;3.27;;;;;;;15.88;56.12;101225.84;6052761;28;20435;-67
2023/06/15 00:10:50;;;;;;;5.03;2.47;;;;;;;15.89;55.32;101216.81;6040033;28;20487;-66
2023/06/15 00:13:45;;;;;;;6.85;3.05;;;;;;;15.92;55.70;101217.34;6051968;28;20124;-67
2023/06/15 00:16:42;;;;;;;6.83;2.53;;;;;;;15.86;55.77;101211.81;6052574;28;20117;-67
2023/06/15 00:19:37;;;;;;;8.15;2.60;;;;;;;15.77;55.61;101210.97;6052710;28;20033;-67
2023/06/15 00:22:34;;;;;;;5.95;2.33;;;;;;;15.88;55.96;101199.94;6044928;28;20066;-66
2023/06/15 00:25:30;;;;;;;6.55;2.40;;;;;;;15.88;55.13;101205.28;6048916;28;20040;-66
2023/06/15 00:28:26;;;;;;;6.22;2.22;;;;;;;15.84;54.97;101208.47;6052295;28;20026;-66
2023/06/15 00:31:22;;;;;;;7.97;2.60;;;;;;;15.72;55.39;101199.94;6050784;28;20117;-66
2023/06/15 00:34:17;;;;;;;5.68;2.30;;;;;;;15.66;54.87;101221.16;6025389;28;20032;-67
2023/06/15 00:37:12;;;;;;;5.53;2.17;;;;;;;15.61;56.14;101196.75;6038326;28;20034;-67
2023/06/15 00:40:09;;;;;;;5.07;2.30;;;;;;;15.64;55.94;101207.13;6052460;28;20172;-66
2023/06/15 00:43:04;;;;;;;6.32;2.70;;;;;;;15.54;56.18;101218.00;6051687;28;20024;-67
2023/06/15 00:45:59;;;;;;;4.28;2.53;;;;;;;15.37;56.50;101221.59;6051574;28;20026;-67
2023/06/15 00:48:55;;;;;;;6.67;2.57;;;;;;;15.29;57.91;101192.19;6067458;28;20033;-67
2023/06/15 00:51:51;;;;;;;6.55;2.53;;;;;;;15.48;57.04;101214.16;6051856;28;20029;-67
2023/06/15 00:54:46;;;;;;;7.00;2.20;;;;;;;15.42;56.75;101214.75;6066016;28;20025;-67
2023/06/15 00:57:44;;;;;;;6.97;3.00;;;;;;;15.45;57.40;101219.78;6047983;28;20033;-66
2023/06/15 01:00:40;;;;;;;5.78;3.00;;;;;;;15.39;58.72;101223.09;6050666;28;20041;-67
2023/06/15 01:03:35;;;;;;;6.40;2.57;;;;;;;15.63;57.04;101221.47;6066458;28;20040;-67
2023/06/15 01:06:31;;;;;;;4.28;2.55;;;;;;;15.42;57.42;101213.91;6050499;28;20025;-67
2023/06/15 01:09:27;;;;;;;5.20;2.60;;;;;;;15.48;58.45;101207.97;6051507;28;20034;-67
2023/06/15 01:12:24;;;;;;;7.45;2.50;;;;;;;15.14;58.50;101207.16;6066619;28;20053;-67
2023/06/15 01:15:19;;;;;;;5.63;2.53;;;;;;;15.22;59.44;101229.41;6049129;28;20041;-67
2023/06/15 01:18:20;;;;;;;4.70;2.40;;;;;;;14.93;58.56;101222.81;6056330;28;20027;-67
2023/06/15 01:21:15;;;;;;;7.15;2.92;;;;;;;14.49;60.28;101216.78;6050472;28;20105;-67
2023/06/15 01:24:24;;;;;;;6.77;2.47;;;;;;;14.32;63.00;101212.34;6065621;28;20036;-67
2023/06/15 01:27:21;;;;;;;8.65;2.65;;;;;;;14.13;62.83;101222.19;6032987;28;20273;-67
2023/06/15 01:30:16;;;;;;;4.97;2.20;;;;;;;13.99;63.69;101221.94;6049747;28;20025;-67
2023/06/15 01:33:12;;;;;;;6.83;2.53;;;;;;;13.57;65.58;101219.94;6048528;28;20033;-67
2023/06/15 01:36:07;;;;;;;5.65;2.47;;;;;;;13.28;66.60;101211.31;6029580;28;20265;-67
2023/06/15 01:39:02;;;;;;;9.20;2.93;;;;;;;13.16;67.87;101225.00;6048988;28;20033;-67
2023/06/15 01:41:59;;;;;;;7.25;3.05;;;;;;;12.89;69.10;101213.34;6052192;28;20027;-67
2023/06/15 01:44:55;;;;;;;5.22;2.42;;;;;;;12.80;70.09;101235.53;6032372;28;20113;-67
2023/06/15 01:47:51;;;;;;;8.57;2.55;;;;;;;12.62;70.57;101213.34;6045357;28;20043;-67
2023/06/15 01:50:47;;;;;;;6.68;2.45;;;;;;;12.54;70.81;101211.44;6050823;28;20048;-67
2023/06/15 01:53:43;;;;;;;6.75;2.72;;;;;;;12.38;72.28;101210.38;6049713;28;20026;-67
2023/06/15 01:56:39;;;;;;;5.05;2.42;;;;;;;12.32;72.84;101234.88;6040096;28;20029;-67
2023/06/15 01:59:34;;;;;;;7.03;2.70;;;;;;;12.16;73.41;101216.03;6052447;28;20068;-67
2023/06/15 02:02:31;;;;;;;5.38;2.70;;;;;;;12.08;74.15;101223.88;6050173;28;20143;-67
2023/06/15 02:05:26;;;;;;;7.95;2.88;;;;;;;11.91;74.63;101206.84;6043725;28;20026;-67
2023/06/15 02:08:21;;;;;;;4.73;2.30;;;;;;;11.86;74.74;101217.91;6039528;28;20046;-67
2023/06/15 02:11:18;;;;;;;6.50;2.57;;;;;;;11.84;75.44;101229.66;6050337;28;20014;-67
2023/06/15 02:14:17;;;;;;;4.72;2.45;;;;;;;11.72;76.50;101228.13;6044595;28;20038;-65
2023/06/15 02:17:12;;;;;;;7.32;2.95;;;;;;;11.50;76.42;101217.75;6035362;28;20038;-66
2023/06/15 02:20:09;;;;;;;5.47;2.53;;;;;;;11.50;76.78;101234.53;6040883;28;20052;-66
2023/06/15 02:23:05;;;;;;;5.47;2.75;;;;;;;11.28;77.79;101208.22;6027382;28;20026;-66
2023/06/15 02:26:00;;;;;;;4.93;2.83;;;;;;;11.22;78.01;101219.41;6049383;28;20032;-66
2023/06/15 02:28:56;;;;;;;5.30;3.00;;;;;;;11.33;78.30;101216.66;6048044;28;20056;-66
2023/06/15 02:31:51;;;;;;;5.20;2.40;;;;;;;11.26;78.60;101210.19;6033459;28;20079;-67
2023/06/15 02:34:47;;;;;;;6.20;2.63;;;;;;;11.34;78.10;101218.31;6043471;28;20095;-67
2023/06/15 02:37:42;;;;;;;9.65;3.30;;;;;;;11.24;78.54;101206.84;6036997;28;20026;-67
2023/06/15 02:40:37;;;;;;;8.57;3.00;;;;;;;11.46;78.51;101227.81;6049818;28;20115;-67
2023/06/15 02:43:33;;;;;;;6.63;2.40;;;;;;;11.32;79.10;101228.22;6033051;28;20074;-67
2023/06/15 02:46:28;;;;;;;6.10;3.40;;;;;;;11.31;78.66;101231.84;6049431;28;20462;-67
2023/06/15 02:49:24;;;;;;;5.37;2.90;;;;;;;11.21;79.30;101239.81;6049695;28;20068;-67
2023/06/15 02:52:20;;;;;;;7.53;2.97;;;;;;;11.59;77.96;101217.75;6049389;28;20026;-67
2023/06/15 02:55:15;;;;;;;9.55;3.05;;;;;;;11.39;79.30;101237.31;6048524;28;20080;-66
2023/06/15 02:58:13;;;;;;;5.17;2.63;;;;;;;11.46;79.61;101222.53;6048151;28;20026;-67
2023/06/15 03:01:08;;;;;;;5.63;2.67;;;;;;;11.23;80.80;101223.72;6049082;28;20064;-67
2023/06/15 03:04:13;;;;;;;4.57;2.60;;;;;;;11.43;81.00;101241.38;6048873;28;20030;-67
2023/06/15 03:07:10;;;;;;;8.00;3.15;;;;;;;11.11;81.80;101216.88;6043201;28;20083;-67
2023/06/15 03:10:05;;;;;;;7.88;2.90;;;;;;;11.07;82.78;101215.47;6039649;28;20497;-67
2023/06/15 03:13:01;;;;;;;6.30;3.20;;;;;;;11.00;83.92;101225.81;6040368;28;20026;-66
2023/06/15 03:15:59;;;;;;;13.43;3.30;;;;;;;10.88;85.17;101228.69;6048705;28;20033;-66
2023/06/15 03:18:54;;;;;;;7.22;3.15;;;;;;;10.92;84.03;101230.97;6037545;28;20042;-66
2023/06/15 03:21:49;;;;;;;5.60;3.00;;;;;;;10.84;84.58;101238.75;6037349;28;20038;-67
2023/06/15 03:24:45;;;;;;;8.18;3.20;;;;;;;10.81;84.28;101246.97;6048605;28;20486;-67
2023/06/15 03:27:40;;;;;;;5.80;2.77;;;;;;;10.94;84.92;101241.41;6048966;28;20038;-67
2023/06/15 03:30:36;;;;;;;5.32;2.85;;;;;;;11.15;82.11;101250.13;6051150;28;20033;-67
2023/06/15 03:33:32;;;;;;;8.02;3.10;;;;;;;11.01;82.84;101245.19;6040449;28;20536;-67
2023/06/15 03:36:33;;;;;;;7.10;3.20;;;;;;;10.85;83.47;101242.22;6035601;28;20032;-67
2023/06/15 03:39:28;;;;;;;;;;;;;;;10.91;83.65;101254.97;6048361;28;20077;-67
2023/06/15 03:42:24;;;;;;;12.37;4.37;;;;;;;10.92;83.87;101254.00;6039559;28;20319;-67
2023/06/15 03:45:19;;;;;;;8.93;4.07;;;;;;;10.82;85.09;101247.81;6052794;28;20029;-67
2023/06/15 03:48:15;;;;;;;9.98;4.00;;;;;;;10.87;85.49;101251.72;6053415;28;20022;-67
2023/06/15 03:51:11;;;;;;;10.00;4.07;;;;;;;10.91;85.35;101252.31;6053085;28;20053;-67
2023/06/15 03:54:06;;;;;;;6.78;2.70;;;;;;;11.06;85.83;101257.09;6052773;28;20057;-67
2023/06/15 03:57:02;;;;;;;5.75;2.92;;;;;;;11.07;86.37;101265.91;6027121;28;20036;-67
2023/06/15 03:59:57;;;;;;;7.32;3.30;;;;;;;11.12;87.06;101267.16;6053342;28;20241;-67
2023/06/15 04:02:53;;;;;;;6.40;3.20;;;;;;;11.10;87.52;101252.34;6053142;28;20038;-67
2023/06/15 04:05:49;;;;;;;9.67;3.30;;;;;;;11.18;88.10;101249.84;6052272;28;20048;-67
2023/06/15 04:08:44;;;;;;;10.48;3.50;;;;;;;11.33;88.05;101265.25;6039356;28;20027;-67
2023/06/15 04:11:40;;;;;;;4.80;2.80;;;;;;;11.38;87.54;101264.84;6052425;28;20033;-68
2023/06/15 04:14:36;;;;;;;8.45;2.70;;;;;;;11.49;87.88;101267.38;6052345;28;20040;-67
2023/06/15 04:17:31;;;;;;;8.10;2.97;;;;;;;11.39;87.89;101255.91;6052749;28;20034;-67
2023/06/15 04:20:28;;;;;;;8.00;3.50;;;;;;;11.42;87.77;101268.06;6052470;28;20507;-67
2023/06/15 04:23:24;;;;;;;6.40;3.40;;;;;;;11.77;85.30;101269.25;6052232;28;20025;-67
2023/06/15 04:26:19;;;;;;;9.37;3.43;;;;;;;12.21;82.96;101275.78;6052332;28;20748;-66
2023/06/15 04:29:18;;;;;;;6.10;2.85;;;;;;;12.76;81.25;101266.09;6045916;28;20465;-67
2023/06/15 04:32:14;;;;;;;6.15;2.90;;;;;;;13.43;78.64;101273.75;6043894;28;20041;-67
2023/06/15 04:35:17;;;;;;;8.95;2.47;;;;;;;14.21;76.13;101267.59;6049012;28;20027;-67
2023/06/15 04:38:13;;;;;;;6.60;3.00;;;;;;;15.06;69.67;101274.78;6041746;28;20109;-67
2023/06/15 04:41:09;;;;;;;8.18;3.83;;;;;;;15.39;68.77;101268.53;6048682;28;20484;-67
2023/06/15 04:44:04;;;;;;;6.33;3.00;;;;;;;15.88;67.33;101257.94;6051002;28;20025;-67
2023/06/15 04:47:00;;;;;;;5.23;2.70;;;;;;;16.30;64.43;101257.75;6039137;28;20065;-67
2023/06/15 04:49:55;;;;;;;8.30;3.03;;;;;;;16.22;63.13;101271.16;6037063;28;20037;-67
2023/06/15 04:52:51;;;;;;;4.88;2.22;;;;;;;17.16;61.82;101288.16;6050539;28;20037;-67
2023/06/15 04:55:48;;;;;;;6.15;2.90;;;;;;;17.65;57.94;101278.88;6051011;28;20032;-67
2023/06/15 04:58:43;;;;;;;4.65;2.70;;;;;;;18.14;54.65;101279.31;6039182;28;20030;-67
2023/06/15 05:01:38;;;;;;;6.13;3.00;;;;;;;18.51;53.88;101269.63;6030412;28;20034;-67
2023/06/15 05:04:34;;;;;;;7.35;3.13;;;;;;;18.87;51.43;101240.97;6029164;28;20130;-67
2023/06/15 05:07:29;;;;;;;10.73;3.97;;;;;;;19.01;52.07;101267.84;6027623;28;20473;-67
2023/06/15 05:10:25;;;;;;;8.15;2.72;;;;;;;19.48;50.72;101263.88;6040305;28;20033;-67
2023/06/15 05:13:20;;;;;;;6.03;3.13;;;;;;;19.67;50.05;101262.41;6035727;28;20041;-67
2023/06/15 05:16:16;;;;;;;6.33;2.77;;;;;;;19.96;48.84;101268.50;6049388;28;20117;-67
2023/06/15 05:19:11;;;;;;;6.50;2.75;;;;;;;19.49;49.36;101268.22;6034904;28;20026;-67
2023/06/15 05:22:07;;;;;;;8.02;3.70;;;;;;;18.76;53.69;101279.06;6051364;28;20109;-67
2023/06/15 05:25:02;;;;;;;7.47;3.50;;;;;;;18.72;53.95;101267.88;6038503;28;20045;-67
2023/06/15 05:27:58;;;;;;;11.80;3.38;;;;;;;18.62;54.03;101266.44;6035922;28;20417;-67
2023/06/15 05:30:53;;;;;;;7.20;3.80;;;;;;;18.39;54.06;101279.94;6035465;28;20034;-67
2023/06/15 05:33:48;;;;;;;8.67;2.97;;;;;;;18.83;52.51;101264.69;6045899;28;20521;-67
2023/06/15 05:36:44;;;;;;;9.37;3.33;;;;;;;19.20;51.09;101271.78;6029487;28;20466;-67
2023/06/15 05:39:39;;;;;;;5.10;3.00;;;;;;;18.94;51.65;101272.28;6025491;28;20037;-67
2023/06/15 05:42:35;;;;;;;5.57;3.30;;;;;;;18.90;53.00;101273.69;6036575;28;20034;-67
2023/06/15 05:45:30;;;;;;;6.38;3.20;;;;;;;19.16;54.47;101275.06;6027877;28;20061;-67
2023/06/15 05:48:26;;;;;;;9.30;3.20;;;;;;;21.07;49.08;101278.44;6031441;28;20038;-67
2023/06/15 05:51:21;;;;;;;8.35;3.25;;;;;;;19.99;50.99;101283.44;6040771;28;20033;-67
2023/06/15 05:54:17;;;;;;;9.03;3.20;;;;;;;20.68;49.77;101284.44;6034279;28;20052;-67
2023/06/15 05:57:12;;;;;;;5.30;3.00;;;;;;;20.86;45.41;101290.13;6030647;28;20042;-67
2023/06/15 06:00:09;;;;;;;5.55;3.17;;;;;;;20.86;45.30;101292.81;6027724;28;20092;-66
2023/06/15 06:03:04;;;;;;;6.75;3.30;;;;;;;19.84;46.66;101269.22;6035618;28;20036;-67
2023/06/15 06:05:59;;;;;;;4.90;2.92;;;;;;;19.95;48.17;101277.59;6025900;28;20026;-66
2023/06/15 06:08:54;;;;;;;9.57;3.60;;;;;;;20.54;45.81;101283.50;6035111;28;20419;-67
2023/06/15 06:11:50;;;;;;;6.40;2.90;;;;;;;21.31;43.50;101292.25;6038020;28;20030;-66
2023/06/15 06:14:45;;;;;;;7.43;3.08;;;;;;;21.08;43.01;101278.25;6026358;28;20104;-67
2023/06/15 06:17:41;;;;;;;6.30;2.90;;;;;;;20.51;43.81;101285.75;6028582;28;20042;-67
2023/06/15 06:20:36;;;;;;;4.43;2.60;;;;;;;21.62;41.77;101294.41;6029020;28;20072;-66
2023/06/15 06:23:32;;;;;;;5.27;2.47;;;;;;;22.29;40.59;101290.78;6020453;28;20026;-65
2023/06/15 06:26:28;;;;;;;8.05;3.50;;;;;;;21.34;42.99;101281.03;6026856;28;20397;-66
2023/06/15 06:29:23;;;;;;;5.10;2.78;;;;;;;21.64;41.46;101275.31;6025536;28;20038;-65
2023/06/15 06:32:19;;;;;;;7.93;3.20;;;;;;;22.13;40.50;101283.09;6030320;28;20033;-66
2023/06/15 06:35:14;;;;;;;5.15;2.90;;;;;;;23.13;39.43;101283.56;6028653;28;20322;-66
2023/06/15 06:38:10;;;;;;;6.15;2.67;;;;;;;23.12;38.88;101271.09;6030717;28;20034;-66
2023/06/15 06:41:05;;;;;;;6.00;2.77;;;;;;;22.71;38.75;101273.28;6032386;28;20038;-65
2023/06/15 06:44:00;;;;;;;5.10;2.93;;;;;;;22.88;39.02;101274.50;6026895;28;20660;-66
2023/06/15 06:46:56;;;;;;;5.13;2.87;;;;;;;23.11;36.91;101269.41;6025082;28;20169;-66
2023/06/15 06:49:52;;;;;;;5.43;2.90;;;;;;;23.77;36.07;101269.09;6024078;28;20033;-66
2023/06/15 06:52:47;;;;;;;5.25;2.92;;;;;;;23.22;37.05;101263.34;6028822;28;20477;-66
2023/06/15 06:55:44;;;;;;;6.17;2.70;;;;;;;23.13;38.15;101265.44;6027183;28;20030;-66
2023/06/15 06:58:40;;;;;;;4.75;2.60;;;;;;;22.79;39.24;101256.84;6028519;28;20390;-66
2023/06/15 07:01:35;;;;;;;4.78;2.50;;;;;;;23.40;38.48;101268.09;6028290;28;20022;-66
2023/06/15 07:04:30;;;;;;;8.68;2.95;;;;;;;24.31;35.92;101266.63;6030664;28;20037;-66
2023/06/15 07:07:26;;;;;;;6.10;2.80;;;;;;;23.82;36.38;101278.25;6028960;28;20038;-66
2023/06/15 07:10:21;;;;;;;10.30;3.23;;;;;;;23.59;36.69;101259.03;6031951;28;20374;-66
2023/06/15 07:13:17;;;;;;;7.68;2.70;;;;;;;24.00;37.59;101263.91;6030731;28;20290;-66
2023/06/15 07:16:12;;;;;;;5.47;2.67;;;;;;;24.28;36.40;101267.91;6031498;28;20042;-67
2023/06/15 07:19:07;;;;;;;7.00;3.00;;;;;;;24.81;35.07;101278.25;6034114;28;20049;-66
2023/06/15 07:22:03;;;;;;;4.83;2.60;;;;;;;24.47;35.40;101266.03;6030784;28;20031;-66
2023/06/15 07:24:58;;;;;;;5.40;2.80;;;;;;;24.45;33.67;101284.44;6030243;28;20034;-66
2023/06/15 07:27:53;;;;;;;4.60;2.43;;;;;;;23.93;35.37;101268.56;6027996;28;20054;-66
2023/06/15 07:30:49;;;;;;;8.93;2.73;;;;;;;23.55;36.32;101277.56;6032139;28;20037;-66
2023/06/15 07:33:44;;;;;;;5.32;2.58;;;;;;;24.13;35.33;101280.13;6026809;28;20035;-66
2023/06/15 07:36:40;;;;;;;7.80;2.55;;;;;;;24.27;34.00;101276.22;6032356;28;20033;-66
2023/06/15 07:39:36;;;;;;;6.47;2.50;;;;;;;23.38;35.41;101271.00;6018048;28;20033;-66
2023/06/15 07:42:32;;;;;;;3.78;2.22;;;;;;;23.61;36.53;101260.47;6030439;28;20129;-66
2023/06/15 07:45:27;;;;;;;6.17;2.53;;;;;;;23.54;36.40;101254.25;6033817;28;20052;-66
2023/06/15 07:48:22;;;;;;;6.90;2.90;;;;;;;24.27;35.74;101270.81;6037351;28;20371;-66
2023/06/15 07:51:18;;;;;;;4.47;2.60;;;;;;;23.45;37.26;101269.09;6026151;28;20041;-66
2023/06/15 07:54:13;;;;;;;4.80;2.73;;;;;;;23.99;36.64;101265.81;6026857;28;20034;-66
2023/06/15 07:57:08;;;;;;;6.80;2.70;;;;;;;24.22;36.72;101268.78;6031316;28;20280;-66
2023/06/15 08:00:05;;;;;;;5.43;2.63;;;;;;;24.45;37.49;101268.16;6032467;28;20034;-67
2023/06/15 08:03:01;;;;;;;7.53;2.75;;;;;;;24.34;36.76;101263.47;6020012;28;20034;-67
2023/06/15 08:05:56;;;;;;;4.45;2.55;;;;;;;23.86;37.98;101278.63;6029430;28;20029;-67
2023/06/15 08:08:51;;;;;;;7.10;2.70;;;;;;;24.17;36.14;101267.78;6028256;28;20038;-66
2023/06/15 08:11:47;;;;;;;6.53;2.50;;;;;;;23.79;37.62;101251.56;6036232;28;20171;-66
2023/06/15 08:14:43;;;;;;;4.22;2.53;;;;;;;23.74;36.50;101248.69;6039962;28;20037;-67
2023/06/15 08:17:38;;;;;;;4.40;2.20;;;;;;;23.73;34.70;101263.28;6026575;28;20037;-66
2023/06/15 08:20:33;;;;;;;8.67;2.30;;;;;;;23.50;36.36;101268.44;6019458;28;20109;-66
2023/06/15 08:23:29;;;;;;;6.00;2.57;;;;;;;23.40;35.81;101274.31;6018510;28;20313;-67
2023/06/15 08:26:24;;;;;;;5.30;2.90;;;;;;;23.67;34.77;101269.59;6029919;28;20380;-67
2023/06/15 08:29:20;;;;;;;5.00;2.60;;;;;;;23.96;34.90;101260.00;6033101;28;20042;-66
2023/06/15 08:32:16;;;;;;;4.25;2.28;;;;;;;24.20;35.07;101253.78;6025804;28;20057;-66
2023/06/15 08:35:11;;;;;;;8.02;2.53;;;;;;;24.04;34.63;101254.31;6022465;28;20031;-66
2023/06/15 08:38:07;;;;;;;7.20;2.80;;;;;;;24.61;35.62;101251.31;6030644;28;20030;-67
2023/06/15 08:41:02;;;;;;;5.25;2.75;;;;;;;24.43;35.68;101253.16;6047435;28;20033;-66
2023/06/15 08:43:58;;;;;;;8.10;2.53;;;;;;;24.41;36.47;101266.94;6031741;28;20078;-66
2023/06/15 08:46:56;;;;;;;6.93;2.42;;;;;;;24.43;34.14;101270.28;6034542;28;20049;-67
2023/06/15 08:49:52;;;;;;;5.13;2.78;;;;;;;24.79;34.51;101254.03;6035470;28;20377;-67
2023/06/15 08:52:48;;;;;;;5.07;2.70;;;;;;;24.58;34.25;101262.59;6045230;28;20390;-67
2023/06/15 08:55:44;;;;;;;5.90;2.38;;;;;;;23.95;33.49;101250.19;6045384;28;20195;-67
2023/06/15 08:58:41;;;;;;;10.82;2.78;;;;;;;24.19;33.99;101254.81;6025250;28;20081;-67
2023/06/15 09:01:40;;;;;;;5.93;3.08;;;;;;;24.00;34.19;101250.38;6027540;28;20378;-66
2023/06/15 09:04:36;;;;;;;11.52;2.75;;;;;;;24.30;34.19;101243.25;6033681;28;20370;-67
2023/06/15 09:07:32;;;;;;;6.97;3.03;;;;;;;25.46;32.87;101252.16;6036726;28;20065;-67
2023/06/15 09:10:27;;;;;;;6.20;2.70;;;;;;;24.49;33.61;101242.22;6032484;28;20030;-67
2023/06/15 09:13:22;;;;;;;6.43;2.30;;;;;;;24.99;33.01;101247.56;6022158;28;20027;-66
2023/06/15 09:16:18;;;;;;;6.63;2.30;;;;;;;24.99;33.27;101253.00;6043877;28;20045;-66
2023/06/15 09:19:16;;;;;;;4.68;2.50;;;;;;;25.36;32.69;101243.72;6025319;28;20369;-67
2023/06/15 09:22:11;;;;;;;4.50;2.20;;;;;;;25.25;31.79;101245.34;6044369;28;20038;-67
2023/06/15 09:25:11;;;;;;;9.43;2.75;;;;;;;25.08;31.16;101236.19;6024115;28;20490;-67
2023/06/15 09:28:07;;;;;;;8.88;2.65;;;;;;;25.34;33.19;101229.56;6033599;28;20023;-67
2023/06/15 09:31:02;;;;;;;5.25;2.50;;;;;;;25.84;31.40;101241.81;6040681;28;20433;-67
2023/06/15 09:34:04;;;;;;;7.13;2.47;;;;;;;25.39;31.22;101249.53;6044261;28;20466;-67
2023/06/15 09:37:00;;;;;;;6.35;2.45;;;;;;;25.34;30.59;101245.84;6025384;28;20469;-67
2023/06/15 09:39:56;;;;;;;5.68;2.40;;;;;;;25.24;31.47;101240.97;6044259;28;20048;-67
2023/06/15 09:42:53;;;;;;;8.15;2.85;;;;;;;24.42;31.79;101229.81;6028120;28;20421;-67
2023/06/15 09:45:50;;;;;;;6.88;2.38;;;;;;;24.92;32.20;101220.53;6032247;28;20037;-67
2023/06/15 09:48:48;;;;;;;5.13;2.60;;;;;;;25.09;30.76;101220.69;6023085;28;20077;-66
2023/06/15 09:51:46;;;;;;;4.53;2.47;;;;;;;25.35;29.84;101214.94;6029085;28;20042;-66
2023/06/15 09:54:42;;;;;;;6.63;2.30;;;;;;;25.51;29.10;101224.34;6022689;28;20035;-66
2023/06/15 09:57:38;;;;;;;7.88;2.60;;;;;;;25.64;28.59;101224.97;6037199;28;20029;-67
2023/06/15 10:00:33;;;;;;;5.90;2.60;;;;;;;25.82;28.90;101203.13;6051427;28;21776;-68
2023/06/15 10:03:31;;;;;;;10.43;2.40;;;;;;;25.71;27.25;101212.09;6035153;28;20029;-66
2023/06/15 10:06:27;;;;;;;7.00;2.78;;;;;;;26.07;28.30;101221.97;6030018;28;20369;-67
2023/06/15 10:09:28;;;;;;;3.25;2.03;;;;;;;26.08;26.84;101220.91;6049577;28;20127;-67
2023/06/15 10:12:25;;;;;;;6.28;2.40;;;;;;;26.03;27.02;101213.47;6031156;28;20044;-67
2023/06/15 10:15:22;;;;;;;10.00;2.35;;;;;;;26.68;26.78;101207.91;6024497;28;20038;-68
2023/06/15 10:18:22;;;;;;;5.07;2.60;;;;;;;27.62;25.05;101204.59;6030203;28;20064;-68
2023/06/15 10:21:19;;;;;;;7.25;2.33;;;;;;;26.90;25.91;101211.66;6033719;28;20490;-67
2023/06/15 10:24:16;;;;;;;10.82;2.35;;;;;;;27.15;25.36;101206.69;6026559;28;20042;-67
2023/06/15 10:27:12;;;;;;;7.40;2.40;;;;;;;26.82;26.02;101206.59;6041981;28;20041;-68
2023/06/15 10:30:28;;;;;;;6.47;2.28;;;;;;;27.26;25.60;101198.75;6028544;28;20066;-67
2023/06/15 10:33:44;;;;;;;9.13;2.80;;;;;;;27.65;25.13;101192.38;6026813;28;20038;-67
2023/06/15 10:36:53;;;;;;;3.67;2.45;;;;;;;26.44;26.33;101198.91;6042681;28;20128;-66
2023/06/15 10:39:49;;;;;;;5.07;2.33;;;;;;;26.06;26.50;101190.41;6031250;28;20045;-67
2023/06/15 10:42:47;;;;;;;4.50;2.35;;;;;;;26.67;26.19;101187.19;6014923;28;20031;-67
2023/06/15 10:45:43;;;;;;;7.28;2.53;;;;;;;27.13;25.50;101176.16;6036410;28;20034;-67
2023/06/15 10:48:38;;;;;;;3.93;2.20;;;;;;;27.36;24.91;101177.97;6025383;28;20037;-67
2023/06/15 10:51:35;;;;;;;7.60;2.70;;;;;;;27.34;25.45;101179.28;6030760;28;20038;-68
2023/06/15 10:54:31;;;;;;;6.57;2.40;;;;;;;26.34;25.84;101186.97;6022099;28;20030;-67
2023/06/15 10:57:28;;;;;;;5.27;2.67;;;;;;;26.31;27.93;101187.50;6047042;28;20037;-67
2023/06/15 11:00:24;;;;;;;5.00;2.30;;;;;;;25.92;28.93;101178.09;6018401;28;20780;-66
2023/06/15 11:03:24;;;;;;;5.97;2.28;;;;;;;25.45;28.74;101193.47;6027059;28;20114;-67
2023/06/15 11:06:31;;;;;;;6.22;2.72;;;;;;;25.64;29.30;101192.34;6027426;28;20521;-67
2023/06/15 11:09:29;;;;;;;7.20;2.85;;;;;;;26.32;28.59;101170.09;6027597;28;20041;-67
2023/06/15 11:12:38;;;;;;;5.57;2.22;;;;;;;26.35;28.55;101186.75;6033275;28;20049;-66
2023/06/15 11:15:35;;;;;;;5.10;2.55;;;;;;;26.50;29.26;101180.81;6024673;28;20089;-67
2023/06/15 11:18:31;;;;;;;7.10;2.72;;;;;;;26.14;27.35;101175.66;6028878;28;20427;-67
2023/06/15 11:21:30;;;;;;;8.07;2.38;;;;;;;26.20;27.91;101185.59;6039796;28;20040;-67
2023/06/15 11:24:29;;;;;;;4.50;2.42;;;;;;;26.18;27.10;101160.50;6028223;28;20036;-67
2023/06/15 11:27:25;;;;;;;6.95;2.30;;;;;;;26.39;28.26;101159.91;6030089;28;20062;-67
2023/06/15 11:30:20;;;;;;;5.05;2.58;;;;;;;26.97;27.72;101166.06;6036803;28;20580;-67
2023/06/15 11:33:25;;;;;;;4.87;2.40;;;;;;;26.94;28.00;101169.25;6023776;28;20040;-67
2023/06/15 11:36:20;;;;;;;7.45;2.53;;;;;;;26.80;26.67;101169.78;6015154;28;20273;-67
2023/06/15 11:39:22;;;;;;;4.40;2.53;;;;;;;26.76;26.96;101153.06;6032683;28;20046;-68
2023/06/15 11:42:20;;;;;;;5.82;2.70;;;;;;;27.08;26.35;101157.00;6031377;28;20466;-67
2023/06/15 11:45:18;;;;;;;6.13;2.28;;;;;;;27.87;25.84;101149.69;6029483;28;20033;-67
2023/06/15 11:48:14;;;;;;;8.15;2.65;;;;;;;27.70;25.52;101144.22;6033541;28;20033;-67
2023/06/15 11:51:11;;;;;;;7.50;2.50;;;;;;;27.83;25.21;101156.69;6028661;28;20037;-67
2023/06/15 11:54:10;;;;;;;4.80;2.30;;;;;;;27.26;26.31;101152.44;6028401;28;20042;-67
2023/06/15 11:57:06;;;;;;;6.68;2.67;;;;;;;25.99;27.33;101147.03;6035489;28;20470;-68
2023/06/15 12:00:06;;;;;;;7.70;2.60;;;;;;;26.42;28.19;101157.53;6050203;28;20049;-67
2023/06/15 12:03:11;;;;;;;5.28;2.30;;;;;;;25.97;28.33;101151.03;6035215;28;20034;-67
2023/06/15 12:06:06;;;;;;;7.30;2.38;;;;;;;26.95;27.20;101157.31;6044009;28;20088;-68
2023/06/15 12:09:02;;;;;;;6.67;2.97;;;;;;;27.16;27.01;101151.16;6035440;28;20469;-67
2023/06/15 12:11:57;;;;;;;9.23;2.28;;;;;;;27.48;26.84;101156.94;6037939;28;20030;-67
2023/06/15 12:14:53;;;;;;;8.60;2.33;;;;;;;27.34;26.41;101132.97;6030409;28;20458;-67
2023/06/15 12:17:48;;;;;;;7.35;3.08;;;;;;;27.21;26.78;101142.25;6029615;28;20431;-67
2023/06/15 12:20:44;;;;;;;6.20;2.50;;;;;;;27.28;25.63;101139.38;6030451;28;20061;-67
2023/06/15 12:23:39;;;;;;;7.63;2.38;;;;;;;26.78;26.04;101137.34;6029612;28;20034;-67
2023/06/15 12:26:35;;;;;;;6.17;2.50;;;;;;;25.74;27.89;101135.53;6037431;28;20022;-67
2023/06/15 12:29:31;;;;;;;6.33;2.33;;;;;;;25.01;30.19;101115.97;6028310;28;20389;-67
2023/06/15 12:32:27;;;;;;;5.80;2.70;;;;;;;25.72;27.81;101118.66;6027614;28;20030;-67
2023/06/15 12:35:33;;;;;;;6.37;2.17;;;;;;;25.76;26.98;101135.31;6027889;28;20575;-67
2023/06/15 12:38:29;;;;;;;;;;;;;;;25.85;26.98;101134.72;6030293;28;20030;-67
2023/06/15 12:41:27;;;;;;;5.20;2.22;;;;;;;26.43;25.76;101121.09;6031356;28;19909;-67
2023/06/15 12:44:22;;;;;;;5.43;2.33;;;;;;;27.01;26.47;101110.06;6025327;28;20470;-67
2023/06/15 12:47:17;;;;;;;5.05;2.45;;;;;;;27.28;26.05;101114.88;6026749;28;20030;-67
2023/06/15 12:50:13;;;;;;;5.47;2.30;;;;;;;27.83;25.84;101121.25;6029245;28;20109;-68
2023/06/15 12:53:09;;;;;;;4.82;2.40;;;;;;;27.51;26.12;101112.00;6031507;28;20350;-67
2023/06/15 12:56:05;;;;;;;3.75;2.25;;;;;;;27.22;25.64;101096.78;6036039;28;20034;-67
2023/06/15 12:59:00;;;;;;;8.55;2.75;;;;;;;27.64;26.63;101117.97;6031937;28;20109;-66
2023/06/15 13:01:56;;;;;;;4.63;2.13;;;;;;;26.73;26.25;101115.44;6021398;28;20061;-68
2023/06/15 13:04:51;;;;;;;7.57;2.50;;;;;;;26.54;27.66;101112.09;6042212;28;20022;-67
2023/06/15 13:07:46;;;;;;;4.23;2.07;;;;;;;26.11;26.94;101111.69;6035684;28;20040;-67
2023/06/15 13:10:42;;;;;;;8.25;2.65;;;;;;;26.32;27.49;101097.47;6039695;28;20500;-68
2023/06/15 13:13:37;;;;;;;7.10;2.27;;;;;;;26.81;26.42;101087.03;6035094;28;20033;-68
2023/06/15 13:16:32;;;;;;;3.95;2.47;;;;;;;27.00;25.52;101089.31;6042701;28;20066;-66
2023/06/15 13:19:28;;;;;;;6.87;2.60;;;;;;;27.50;26.53;101083.97;6041130;28;20095;-67
2023/06/15 13:22:23;;;;;;;6.57;2.70;;;;;;;27.86;25.98;101089.94;6038966;28;20026;-67
2023/06/15 13:25:19;;;;;;;7.80;2.80;;;;;;;28.01;24.24;101074.63;6034742;28;20030;-67
2023/06/15 13:28:14;;;;;;;6.25;2.22;;;;;;;28.25;25.75;101084.25;6039007;28;20027;-67
2023/06/15 13:31:10;;;;;;;5.97;2.23;;;;;;;28.12;24.82;101076.44;6033219;28;20073;-68
2023/06/15 13:34:07;;;;;;;5.35;2.78;;;;;;;28.20;25.62;101073.28;6036950;28;20513;-68
2023/06/15 13:37:02;;;;;;;8.65;2.85;;;;;;;27.87;24.97;101061.59;6031256;28;20061;-67
2023/06/15 13:39:59;;;;;;;6.28;2.38;;;;;;;28.49;24.40;101064.88;6031911;28;20282;-67